Time;durP1;ratioP1;P1;durP2;ratioP2;P2;SDS_P1;SDS_P2;PMS_P1;PMS_P2;Temp;Humidity;BMP_temperature;BMP_pressure;BME280_temperature;BME280_humidity;BME280_pressure;Samples;Min_cycle;Max_cycle;Signal;HPM_P1;HPM_P2
2021/10/29 00:00:33;;;;;;;;;;;;;;;6.18;98.04;98607.00;5042968;27;104209;-65
2021/10/29 00:03:01;;;;;;;;;;;;;;;6.24;96.41;98603.19;5048941;27;103215;-65
2021/10/29 00:05:29;;;;;;;;;;;;;;;6.27;94.59;98606.47;5050986;27;102688;-65
2021/10/29 00:07:57;;;;;;;;;;;;;;;6.16;92.39;98595.75;5045251;27;102869;-65
2021/10/29 00:10:27;;;;;;;;;;;;;;;5.95;93.97;98602.16;5022734;27;104099;-65
2021/10/29 00:12:55;;;;;;;;;;;;;;;5.80;96.30;98595.13;5035249;27;103031;-65
2021/10/29 00:15:24;;;;;;;;;;;;;;;5.92;97.56;98597.13;5052895;27;102669;-65
2021/10/29 00:17:52;;;;;;;;;;;;;;;6.03;96.39;98601.78;5031382;27;102640;-65
2021/10/29 00:20:20;;;;;;;;;;;;;;;6.05;95.11;98594.66;5042907;27;103280;-65
2021/10/29 00:22:48;;;;;;;;;;;;;;;6.04;93.80;98599.03;5035995;27;103339;-65
2021/10/29 00:25:15;;;;;;;;;;;;;;;6.00;92.78;98594.91;5029605;27;102805;-64
2021/10/29 00:27:45;;;;;;;;;;;;;;;5.98;92.42;98604.63;5041500;27;102641;-65
2021/10/29 00:30:13;;;;;;;;;;;;;;;5.44;95.84;98597.97;5051510;27;103270;-64
2021/10/29 00:32:40;;;;;;;;;;;;;;;5.67;95.80;98599.34;5044877;27;103245;-65
2021/10/29 00:35:09;;;;;;;;;;;;;;;5.66;95.33;98590.63;5045370;27;102721;-65
2021/10/29 00:37:39;;;;;;;;;;;;;;;5.68;93.73;98595.78;5039275;27;102759;-65
2021/10/29 00:40:09;;;;;;;;;;;;;;;5.74;93.90;98595.47;5029338;27;103222;-64
2021/10/29 00:42:37;;;;;;;;;;;;;;;5.73;93.07;98591.13;5042289;27;103209;-64
2021/10/29 00:45:06;;;;;;;;;;;;;;;4.95;97.46;98586.56;5027864;27;102728;-64
2021/10/29 00:47:34;;;;;;;;;;;;;;;5.26;98.83;98594.53;5051984;27;102724;-64
2021/10/29 00:50:02;;;;;;;;;;;;;;;5.28;97.97;98588.38;5031243;27;103219;-64
2021/10/29 00:52:30;;;;;;;;;;;;;;;5.20;97.07;98589.63;5043608;27;103204;-64
2021/10/29 00:54:59;;;;;;;;;;;;;;;5.24;98.15;98591.16;5042931;27;103112;-64
2021/10/29 00:57:27;;;;;;;;;;;;;;;5.43;98.66;98574.44;5039656;27;102937;-64
2021/10/29 00:59:55;;;;;;;;;;;;;;;5.42;96.92;98578.03;5047058;27;104043;-64
2021/10/29 01:02:24;;;;;;;;;;;;;;;5.37;97.18;98585.25;5046207;27;103240;-64
2021/10/29 01:04:52;;;;;;;;;;;;;;;5.45;97.91;98583.06;5042769;27;102775;-64
2021/10/29 01:07:22;;;;;;;;;;;;;;;5.40;95.31;98580.69;5036513;27;103553;-64
2021/10/29 01:09:50;;;;;;;;;;;;;;;5.25;96.15;98582.34;5048455;27;104016;-64
2021/10/29 01:12:18;;;;;;;;;;;;;;;5.14;97.63;98579.44;5050770;27;103275;-64
2021/10/29 01:14:52;;;;;;;;;;;;;;;4.98;100.00;98578.56;5042831;27;102700;-64
2021/10/29 01:17:20;;;;;;;;;;;;;;;5.21;100.00;98580.84;5042324;27;102776;-64
2021/10/29 01:19:50;;;;;;;;;;;;;;;5.31;100.00;98580.34;5048108;27;103464;-64
2021/10/29 01:22:20;;;;;;;;;;;;;;;5.41;100.00;98566.69;5043550;27;103179;-64
2021/10/29 01:24:48;;;;;;;;;;;;;;;5.40;100.00;98569.38;5053644;27;102604;-64
2021/10/29 01:27:16;;;;;;;;;;;;;;;5.44;100.00;98570.91;5054109;27;104153;-64
2021/10/29 01:29:45;;;;;;;;;;;;;;;5.50;100.00;98565.34;5039457;27;103766;-64
2021/10/29 01:32:13;;;;;;;;;;;;;;;5.46;100.00;98569.03;5040237;27;103180;-64
2021/10/29 01:34:42;;;;;;;;;;;;;;;5.43;98.78;98567.44;5035741;27;102732;-64
2021/10/29 01:37:12;;;;;;;;;;;;;;;5.38;98.33;98561.59;5039145;27;102969;-65
2021/10/29 01:39:41;;;;;;;;;;;;;;;5.45;97.93;98562.09;5044677;27;103360;-64
2021/10/29 01:42:09;;;;;;;;;;;;;;;5.48;96.34;98562.78;5012075;27;103179;-64
2021/10/29 01:44:37;;;;;;;;;;;;;;;5.32;93.00;98553.22;5040046;27;104149;-64
2021/10/29 01:47:05;;;;;;;;;;;;;;;5.38;94.51;98558.13;5055901;27;103091;-64
2021/10/29 01:49:33;;;;;;;;;;;;;;;5.42;93.90;98567.53;5049563;27;103842;-65
2021/10/29 01:52:01;;;;;;;;;;;;;;;5.44;93.19;98563.06;5030172;27;103143;-64
2021/10/29 01:54:29;;;;;;;;;;;;;;;5.42;92.14;98568.34;5047431;27;102612;-65
2021/10/29 01:56:59;;;;;;;;;;;;;;;5.06;92.43;98568.53;5051597;27;102613;-64
2021/10/29 01:59:27;;;;;;;;;;;;;;;5.04;94.51;98566.94;5052952;27;104264;-64
2021/10/29 02:01:55;;;;;;;;;;;;;;;5.07;94.77;98564.16;5042249;27;103155;-64
2021/10/29 02:04:26;;;;;;;;;;;;;;;5.15;94.32;98564.59;5046313;27;102677;-64
2021/10/29 02:06:54;;;;;;;;;;;;;;;5.10;93.89;98561.38;5049935;27;103217;-64
2021/10/29 02:09:22;;;;;;;;;;;;;;;5.10;93.71;98556.13;5026837;27;102774;-64
2021/10/29 02:11:50;;;;;;;;;;;;;;;4.97;94.26;98561.16;5041336;27;103156;-64
2021/10/29 02:14:19;;;;;;;;;;;;;;;4.86;93.73;98563.47;5038587;27;102672;-64
2021/10/29 02:16:47;;;;;;;;;;;;;;;4.68;95.91;98559.19;5048985;27;102756;-65
2021/10/29 02:19:15;;;;;;;;;;;;;;;4.49;97.94;98558.44;5042590;27;103229;-65
2021/10/29 02:21:43;;;;;;;;;;;;;;;4.64;98.47;98558.50;5023732;27;102975;-65
2021/10/29 02:24:11;;;;;;;;;;;;;;;4.54;97.68;98569.50;5050359;27;102632;-65
2021/10/29 02:26:39;;;;;;;;;;;;;;;4.31;100.00;98559.34;5048075;27;102973;-65
2021/10/29 02:29:07;;;;;;;;;;;;;;;4.19;100.00;98562.53;5043774;27;104032;-64
2021/10/29 02:31:39;;;;;;;;;;;;;;;4.42;100.00;98557.88;5042068;27;103156;-65
2021/10/29 02:34:07;;;;;;;;;;;;;;;4.51;100.00;98565.28;5030269;27;102774;-65
2021/10/29 02:36:35;;;;;;;;;;;;;;;4.75;100.00;98568.41;5040048;27;102860;-65
2021/10/29 02:39:04;;;;;;;;;;;;;;;4.56;99.13;98565.03;5043830;27;103313;-65
2021/10/29 02:41:32;;;;;;;;;;;;;;;4.22;99.00;98565.00;5043986;27;103149;-65
2021/10/29 02:44:00;;;;;;;;;;;;;;;4.26;100.00;98561.34;5052802;27;102804;-65
2021/10/29 02:46:29;;;;;;;;;;;;;;;4.40;100.00;98559.75;5041128;27;102722;-65
2021/10/29 02:48:58;;;;;;;;;;;;;;;4.08;100.00;98568.28;5042684;27;103910;-65
2021/10/29 02:51:29;;;;;;;;;;;;;;;4.14;100.00;98568.00;5056005;27;102937;-64
2021/10/29 02:53:57;;;;;;;;;;;;;;;4.23;100.00;98561.47;5057559;27;102892;-64
2021/10/29 02:56:27;;;;;;;;;;;;;;;4.24;100.00;98565.81;5052474;27;102762;-64
2021/10/29 02:58:55;;;;;;;;;;;;;;;4.15;100.00;98563.63;5054565;27;103380;-65
2021/10/29 03:01:23;;;;;;;;;;;;;;;4.03;100.00;98559.84;5025298;27;103209;-65
2021/10/29 03:03:51;;;;;;;;;;;;;;;4.10;100.00;98556.84;5039541;27;102851;-65
2021/10/29 03:06:23;;;;;;;;;;;;;;;4.24;100.00;98566.63;5042633;27;102643;-65
2021/10/29 03:08:55;;;;;;;;;;;;;;;4.22;100.00;98562.38;5042005;27;103021;-65
2021/10/29 03:11:23;;;;;;;;;;;;;;;4.16;100.00;98560.06;5044988;27;103127;-65
2021/10/29 03:13:54;;;;;;;;;;;;;;;4.15;100.00;98564.47;5045450;27;102675;-65
2021/10/29 03:16:22;;;;;;;;;;;;;;;4.17;100.00;98561.78;5041414;27;102677;-65
2021/10/29 03:18:50;;;;;;;;;;;;;;;4.18;100.00;98560.88;5043136;27;105082;-65
2021/10/29 03:21:18;;;;;;;;;;;;;;;4.18;100.00;98563.47;5043156;27;103171;-65
2021/10/29 03:23:48;;;;;;;;;;;;;;;4.00;100.00;98550.38;5047091;27;102669;-65
2021/10/29 03:26:15;;;;;;;;;;;;;;;3.91;100.00;98563.88;5009532;27;103953;-65
2021/10/29 03:28:43;;;;;;;;;;;;;;;3.78;100.00;98554.94;5021322;27;103266;-65
2021/10/29 03:31:11;;;;;;;;;;;;;;;3.89;100.00;98555.28;5045178;27;103142;-65
2021/10/29 03:33:40;;;;;;;;;;;;;;;3.95;100.00;98557.59;5050425;27;102711;-65
2021/10/29 03:36:08;;;;;;;;;;;;;;;3.90;100.00;98550.91;5041928;27;102711;-65
2021/10/29 03:38:47;;;;;;;;;;;;;;;4.01;100.00;98549.44;5039271;27;103862;-65
2021/10/29 03:41:19;;;;;;;;;;;;;;;3.95;100.00;98547.16;5041667;27;103165;-65
2021/10/29 03:43:51;;;;;;;;;;;;;;;4.07;100.00;98541.31;5050171;27;102681;-64
2021/10/29 03:46:22;;;;;;;;;;;;;;;3.95;100.00;98536.69;5054144;27;102613;-64
2021/10/29 03:48:59;;;;;;;;;;;;;;;4.06;100.00;98534.41;5050037;27;103353;-65
2021/10/29 03:51:29;;;;;;;;;;;;;;;4.04;100.00;98530.16;5035622;27;103176;-65
2021/10/29 03:54:01;;;;;;;;;;;;;;;4.17;100.00;98536.47;5024485;27;102753;-65
2021/10/29 03:56:30;;;;;;;;;;;;;;;4.28;100.00;98528.94;5051452;27;102810;-65
2021/10/29 03:58:59;;;;;;;;;;;;;;;4.38;100.00;98529.34;5054623;27;103149;-65
2021/10/29 04:01:27;;;;;;;;;;;;;;;4.50;100.00;98528.72;5035738;27;103161;-65
2021/10/29 04:03:55;;;;;;;;;;;;;;;4.55;100.00;98522.31;5044634;27;103705;-62
2021/10/29 04:06:23;;;;;;;;;;;;;;;4.60;100.00;98538.63;5046528;27;104803;-62
2021/10/29 04:08:50;;;;;;;;;;;;;;;4.51;100.00;98533.88;5026757;27;103218;-62
2021/10/29 04:11:21;;;;;;;;;;;;;;;4.50;100.00;98539.19;5049388;27;103126;-62
2021/10/29 04:13:51;;;;;;;;;;;;;;;4.47;100.00;98534.09;5022668;27;103745;-62
2021/10/29 04:16:19;;;;;;;;;;;;;;;4.48;100.00;98536.66;5028685;27;102817;-62
2021/10/29 04:18:48;;;;;;;;;;;;;;;4.50;100.00;98532.19;5023343;27;104081;-63
2021/10/29 04:21:18;;;;;;;;;;;;;;;4.62;100.00;98543.81;5041005;27;102957;-63
2021/10/29 04:23:46;;;;;;;;;;;;;;;4.62;100.00;98543.81;5045277;27;102674;-62
2021/10/29 04:26:14;;;;;;;;;;;;;;;4.76;100.00;98546.56;5021596;27;103176;-63
2021/10/29 04:28:43;;;;;;;;;;;;;;;4.85;100.00;98540.88;5042358;27;103868;-62
2021/10/29 04:31:19;;;;;;;;;;;;;;;4.81;100.00;98547.16;5045984;27;103227;-63
2021/10/29 04:33:50;;;;;;;;;;;;;;;4.90;100.00;98541.47;5039216;27;102622;-62
2021/10/29 04:36:20;;;;;;;;;;;;;;;4.93;100.00;98538.69;5043046;27;102754;-63
2021/10/29 04:38:50;;;;;;;;;;;;;;;4.76;100.00;98546.56;5049894;27;103206;-62
2021/10/29 04:41:18;;;;;;;;;;;;;;;4.61;100.00;98534.25;5045660;27;103798;-64
2021/10/29 04:43:46;;;;;;;;;;;;;;;4.64;100.00;98536.72;5032082;27;103922;-65
2021/10/29 04:46:18;;;;;;;;;;;;;;;4.46;100.00;98537.66;5037401;27;104878;-65
2021/10/29 04:48:46;;;;;;;;;;;;;;;4.43;100.00;98532.56;5046610;27;103988;-65
2021/10/29 04:51:14;;;;;;;;;;;;;;;4.51;100.00;98525.19;5038446;27;103185;-64
2021/10/29 04:53:42;;;;;;;;;;;;;;;4.53;100.00;98524.19;5024305;27;102766;-65
2021/10/29 04:56:10;;;;;;;;;;;;;;;4.51;100.00;98518.19;5022320;27;102931;-65
2021/10/29 04:58:37;;;;;;;;;;;;;;;4.50;100.00;98520.88;5035603;27;103256;-65
2021/10/29 05:01:05;;;;;;;;;;;;;;;4.05;100.00;98518.78;5036310;27;103151;-65
2021/10/29 05:03:35;;;;;;;;;;;;;;;3.94;100.00;98521.91;5054485;27;102700;-65
2021/10/29 05:06:03;;;;;;;;;;;;;;;3.86;100.00;98524.06;5039173;27;102739;-65
2021/10/29 05:08:32;;;;;;;;;;;;;;;3.77;100.00;98521.88;5046552;27;103200;-65
2021/10/29 05:10:59;;;;;;;;;;;;;;;3.88;100.00;98518.75;5030786;27;103165;-65
2021/10/29 05:13:27;;;;;;;;;;;;;;;4.09;100.00;98509.88;5036854;27;102736;-65
2021/10/29 05:15:56;;;;;;;;;;;;;;;4.12;100.00;98514.09;5041408;27;102759;-65
2021/10/29 05:18:23;;;;;;;;;;;;;;;4.27;100.00;98515.94;5036681;27;103230;-65
2021/10/29 05:20:53;;;;;;;;;;;;;;;4.24;100.00;98519.56;5037408;27;103161;-65
2021/10/29 05:23:25;;;;;;;;;;;;;;;4.36;100.00;98515.47;5043034;27;102664;-65
2021/10/29 05:25:53;;;;;;;;;;;;;;;4.31;100.00;98522.72;5042106;27;103225;-65
2021/10/29 05:28:21;;;;;;;;;;;;;;;4.47;100.00;98515.78;5044753;27;103878;-65
2021/10/29 05:30:49;;;;;;;;;;;;;;;4.57;100.00;98509.19;5039660;27;103219;-65
2021/10/29 05:33:17;;;;;;;;;;;;;;;4.57;100.00;98510.03;5044903;27;102677;-65
2021/10/29 05:35:45;;;;;;;;;;;;;;;4.37;100.00;98509.34;5016180;27;103823;-65
2021/10/29 05:38:14;;;;;;;;;;;;;;;4.61;100.00;98513.31;5035943;27;103286;-65
2021/10/29 05:40:42;;;;;;;;;;;;;;;4.64;100.00;98514.00;5022625;27;103232;-65
2021/10/29 05:43:09;;;;;;;;;;;;;;;4.47;100.00;98502.72;5032656;27;103026;-65
2021/10/29 05:45:37;;;;;;;;;;;;;;;4.60;100.00;98509.03;5036809;27;102759;-65
2021/10/29 05:48:07;;;;;;;;;;;;;;;4.46;100.00;98506.28;5016845;27;104267;-65
2021/10/29 05:50:46;;;;;;;;;;;;;;;4.54;100.00;98506.72;5034699;27;103177;-65
2021/10/29 05:53:21;;;;;;;;;;;;;;;4.74;100.00;98501.31;5033602;27;102652;-65
2021/10/29 05:55:50;;;;;;;;;;;;;;;4.53;100.00;98500.63;5041760;27;102728;-65
2021/10/29 05:58:19;;;;;;;;;;;;;;;4.69;100.00;98504.16;5031800;27;103935;-64
2021/10/29 06:00:47;;;;;;;;;;;;;;;4.60;100.00;98498.56;5025647;27;103269;-65
2021/10/29 06:03:15;;;;;;;;;;;;;;;4.50;100.00;98502.56;5027651;27;102923;-65
2021/10/29 06:05:43;;;;;;;;;;;;;;;4.66;100.00;98498.22;5035418;27;103176;-65
2021/10/29 06:08:11;;;;;;;;;;;;;;;4.76;100.00;98499.44;5039713;27;103864;-65
2021/10/29 06:10:41;;;;;;;;;;;;;;;4.40;100.00;98496.97;5042858;27;103209;-65
2021/10/29 06:13:09;;;;;;;;;;;;;;;4.33;100.00;98503.41;5039223;27;103135;-65
2021/10/29 06:15:41;;;;;;;;;;;;;;;4.39;100.00;98504.88;5037332;27;102767;-65
2021/10/29 06:18:09;;;;;;;;;;;;;;;4.37;100.00;98507.56;5017392;27;103660;-65
2021/10/29 06:20:39;;;;;;;;;;;;;;;4.45;100.00;98500.19;5037859;27;103217;-65
2021/10/29 06:23:08;;;;;;;;;;;;;;;4.54;100.00;98510.19;5037843;27;102962;-65
2021/10/29 06:25:42;;;;;;;;;;;;;;;4.72;100.00;98504.91;5036357;27;102851;-65
2021/10/29 06:28:17;;;;;;;;;;;;;;;4.91;100.00;98498.63;5040631;27;104083;-65
2021/10/29 06:30:47;;;;;;;;;;;;;;;4.90;100.00;98502.19;5041597;27;103155;-65
2021/10/29 06:33:18;;;;;;;;;;;;;;;5.06;100.00;98503.06;5028593;27;102713;-65
2021/10/29 06:35:47;;;;;;;;;;;;;;;5.17;100.00;98503.34;5024992;27;102830;-65
2021/10/29 06:38:17;;;;;;;;;;;;;;;5.31;100.00;98507.84;5042814;27;103263;-65
2021/10/29 06:40:46;;;;;;;;;;;;;;;5.48;100.00;98506.91;5022736;27;102726;-65
2021/10/29 06:43:21;;;;;;;;;;;;;;;5.56;99.98;98507.34;5042129;27;102729;-65
2021/10/29 06:48:48;;;;;;;;;;;;;;;5.70;98.47;98515.28;5032780;27;103220;-65
2021/10/29 06:59:49;;;;;;;;;;;;;;;6.74;95.96;98516.25;5047157;27;103234;-65
2021/10/29 07:02:51;;;;;;;;;;;;;;;6.70;95.16;98514.78;5039018;27;103139;-66
2021/10/29 07:41:23;;;;;;;;;;;;;;;9.55;86.35;98508.19;5015946;27;104260;-65
2021/10/29 07:43:53;;;;;;;;;;;;;;;9.39;84.96;98512.03;5025212;27;104092;-65
2021/10/29 07:46:21;;;;;;;;;;;;;;;9.51;83.61;98517.31;5040091;27;103134;-65
2021/10/29 07:48:51;;;;;;;;;;;;;;;10.03;82.54;98503.81;5042670;27;102672;-65
2021/10/29 07:51:19;;;;;;;;;;;;;;;10.12;82.89;98503.16;5043401;27;104635;-65
2021/10/29 07:53:47;;;;;;;;;;;;;;;9.79;83.38;98505.63;5046587;27;103918;-65
2021/10/29 07:56:14;;;;;;;;;;;;;;;10.09;82.43;98502.53;5027263;27;103171;-65
2021/10/29 07:58:42;;;;;;;;;;;;;;;9.49;82.71;98503.34;5045312;27;102827;-65
2021/10/29 08:01:10;;;;;;;;;;;;;;;9.68;84.48;98503.75;5025676;27;102983;-65
2021/10/29 08:03:38;;;;;;;;;;;;;;;10.02;80.89;98501.31;5044627;27;103169;-65
2021/10/29 08:06:08;;;;;;;;;;;;;;;10.52;82.32;98501.09;5034653;27;103228;-65
2021/10/29 08:08:35;;;;;;;;;;;;;;;10.69;80.08;98498.00;5039502;27;102746;-65
2021/10/29 08:11:04;;;;;;;;;;;;;;;10.88;78.64;98500.94;5050024;27;102684;-65
2021/10/29 08:13:32;;;;;;;;;;;;;;;11.38;77.36;98496.16;5022884;27;103238;-64
2021/10/29 08:16:03;;;;;;;;;;;;;;;11.41;77.26;98501.22;5044068;27;103117;-64
2021/10/29 08:18:39;;;;;;;;;;;;;;;11.57;74.43;98501.66;5047653;27;102547;-64
2021/10/29 08:21:10;;;;;;;;;;;;;;;12.39;73.54;98503.78;5046795;27;103102;-65
2021/10/29 08:23:38;;;;;;;;;;;;;;;11.85;74.32;98505.63;5048918;27;102658;-65
2021/10/29 08:26:06;;;;;;;;;;;;;;;12.55;70.90;98508.66;5049386;27;103112;-65
2021/10/29 08:28:34;;;;;;;11.33;10.23;;;;;;;11.93;74.60;98514.63;5039161;27;104448;-66
2021/10/29 08:31:02;;;;;;;12.60;10.67;;;;;;;11.52;74.72;98509.13;5028795;27;102648;-65
2021/10/29 08:33:30;;;;;;;11.13;10.03;;;;;;;11.16;77.58;98506.72;5035917;27;103779;-66
2021/10/29 08:35:59;;;;;;;12.17;10.90;;;;;;;10.89;79.11;98499.94;5050995;27;103724;-64
2021/10/29 08:38:29;;;;;;;12.43;11.13;;;;;;;11.77;77.45;98503.59;5046785;27;103007;-64
2021/10/29 08:41:10;;;;;;;10.57;9.57;;;;;;;11.80;75.88;98502.50;5008952;27;102623;-64
2021/10/29 08:43:39;;;;;;;15.27;10.80;;;;;;;11.73;76.32;98496.91;4997841;27;104217;-64
2021/10/29 08:46:07;;;;;;;12.63;11.30;;;;;;;11.60;75.88;98493.50;5005894;27;103192;-64
2021/10/29 08:48:37;;;;;;;10.77;9.67;;;;;;;11.78;75.49;98489.41;5013726;27;102626;-64
2021/10/29 08:51:05;;;;;;;11.57;10.40;;;;;;;10.96;77.73;98493.25;5026197;27;102652;-64
2021/10/29 08:53:35;;;;;;;10.37;9.27;;;;;;;10.83;79.75;98500.44;5026700;27;103324;-64
2021/10/29 08:56:05;;;;;;;10.23;9.23;;;;;;;10.92;79.06;98505.00;5016265;27;103251;-64
2021/10/29 08:59:07;;;;;;;12.03;10.07;;;;;;;11.28;77.32;98495.19;5016209;27;102766;-64
2021/10/29 09:01:49;;;;;;;13.73;11.17;;;;;;;11.59;76.71;98500.59;5024940;27;103070;-64
2021/10/29 09:04:22;;;;;;;10.27;9.27;;;;;;;11.42;76.60;98493.16;5018812;27;103362;-64
2021/10/29 09:06:56;;;;;;;11.77;10.57;;;;;;;11.38;76.79;98491.72;5024383;27;103275;-64
2021/10/29 09:09:48;;;;;;;11.63;10.53;;;;;;;12.00;74.36;98478.78;5018198;27;103426;-63
2021/10/29 09:32:22;;;;;;;;;;;;;;;12.46;72.83;98451.16;5024671;27;102933;-67
2021/10/29 09:34:57;;;;;;;;;;;;;;;12.58;72.37;98450.94;5025148;27;103079;-64
2021/10/29 09:37:34;;;;;;;;;;;;;;;12.49;73.45;98443.75;5027459;27;103302;-64
2021/10/29 09:40:20;;;;;;;;;;;;;;;12.62;73.03;98443.56;5038534;27;103215;-63
2021/10/29 09:42:51;;;;;;;;;;;;;;;12.36;73.99;98447.56;5045998;27;102754;-63
2021/10/29 09:45:21;;;;;;;;;;;;;;;11.25;77.01;98453.97;5025182;27;103301;-64
2021/10/29 09:47:55;;;;;;;;;;;;;;;11.87;77.51;98446.34;5024338;27;103210;-63
2021/10/29 09:50:25;;;;;;;;;;;;;;;12.40;75.37;98446.34;5041112;27;103206;-64
2021/10/29 09:53:03;;;;;;;;;;;;;;;12.84;71.18;98443.44;5045804;27;102676;-64
2021/10/29 09:58:19;;;;;;;;;;;;;;;13.03;71.56;98446.19;5034569;27;103254;-64
2021/10/29 10:00:47;;;;;;;;;;;;;;;13.18;70.85;98447.56;5041484;27;103209;-64
2021/10/29 10:03:19;;;;;;;;;;;;;;;12.82;72.94;98448.03;5027073;27;103006;-64
2021/10/29 10:05:48;;;;;;;;;;;;;;;13.13;71.53;98449.78;5035893;27;103015;-64
2021/10/29 10:08:18;;;;;;;;;;;;;;;13.11;72.07;98443.75;5043492;27;104113;-64
2021/10/29 10:10:50;;;;;;;;;;;;;;;13.54;71.00;98453.25;5043747;27;103258;-64
2021/10/29 10:13:20;;;;;;;;;;;;;;;13.48;70.73;98437.88;5039814;27;103135;-64
2021/10/29 10:15:51;;;;;;;;;;;;;;;13.67;71.22;98435.28;5046230;27;102807;-64
2021/10/29 10:18:21;;;;;;;;;;;;;;;13.74;71.56;98444.38;5038970;27;103269;-64
2021/10/29 10:20:49;;;;;;;;;;;;;;;12.72;73.28;98442.66;5043492;27;103237;-66
2021/10/29 10:23:21;;;;;;;;;;;;;;;13.11;73.14;98441.09;5022096;27;102792;-64
2021/10/29 10:26:07;;;;;;;;;;;;;;;12.91;72.89;98431.34;5043980;27;102825;-64
2021/10/29 10:28:49;;;;;;;;;;;;;;;12.40;74.61;98428.66;5040983;27;103410;-65
2021/10/29 10:42:51;;;;;;;;;;;;;;;13.62;70.36;98421.56;5046354;27;103157;-64
2021/10/29 10:45:34;;;;;;;;;;;;;;;14.19;69.79;98413.69;5053035;27;102855;-64
2021/10/29 10:48:08;;;;;;;;;;;;;;;14.71;67.86;98417.69;5054506;27;102763;-64
2021/10/29 10:50:40;;;;;;;;;;;;;;;15.13;67.22;98410.13;5045340;27;102965;-66
2021/10/29 10:53:36;;;;;;;;;;;;;;;14.96;67.75;98402.94;5049727;27;103202;-66
2021/10/29 10:56:14;;;;;;;;;;;;;;;14.50;67.84;98398.44;5050604;27;102678;-66
2021/10/29 10:58:57;;;;;;;;;;;;;;;15.00;65.96;98399.00;5042854;27;102871;-66
2021/10/29 11:09:52;;;;;;;;;;;;;;;15.38;65.24;98382.84;5038579;27;102795;-64
2021/10/29 11:10:27;;;;;;;;;;;;;;;15.88;64.63;98371.78;5047282;27;102726;-64
2021/10/29 11:13:08;;;;;;;;;;;;;;;15.65;64.28;98379.38;5045554;27;103300;-64
2021/10/29 11:15:37;;;;;;;;;;;;;;;15.88;64.09;98379.78;5048723;27;103280;-64
2021/10/29 11:18:20;;;;;;;;;;;;;;;14.91;65.76;98374.09;5043876;27;102713;-65
2021/10/29 11:20:51;;;;;;;;;;;;;;;14.73;66.88;98375.00;5049369;27;102685;-64
2021/10/29 11:23:22;;;;;;;;;;;;;;;15.18;65.55;98362.66;5048969;27;103122;-64
2021/10/29 11:25:58;;;;;;;;;;;;;;;15.51;65.26;98351.44;5050910;27;103306;-64
2021/10/29 11:28:31;;;;;;;;;;;;;;;16.37;63.41;98355.22;5051498;27;102689;-64
2021/10/29 11:30:59;;;;;;;;;;;;;;;16.47;62.50;98339.97;5051053;27;104018;-64
2021/10/29 11:33:27;;;;;;;;;;;;;;;16.34;62.19;98338.69;5048598;27;103434;-64
2021/10/29 11:36:03;;;;;;;;;;;;;;;16.24;62.18;98336.97;5030102;27;103192;-64
2021/10/29 11:38:31;;;;;;;;;;;;;;;16.72;61.76;98325.81;5044837;27;102767;-64
2021/10/29 11:41:01;;;;;;;;;;;;;;;16.73;61.43;98324.81;5052119;27;102839;-63
2021/10/29 11:43:31;;;;;;;;;;;;;;;15.73;64.25;98333.34;5052559;27;104077;-65
2021/10/29 11:46:00;;;;;;;;;;;;;;;17.15;60.69;98322.19;5052668;27;103834;-65
2021/10/29 11:48:28;;;;;;;;;;;;;;;17.07;60.79;98326.63;5052598;27;102630;-65
2021/10/29 11:51:05;;;;;;;;;;;;;;;17.26;59.28;98323.75;5057873;27;103073;-65
2021/10/29 11:53:35;;;;;;;;;;;;;;;17.53;60.70;98315.47;5049257;27;103031;-65
2021/10/29 11:56:07;;;;;;;;;;;;;;;17.82;58.88;98307.84;5056032;27;103146;-65
2021/10/29 11:58:45;;;;;;;;;;;;;;;18.01;57.93;98296.03;5056316;27;102658;-65
2021/10/29 12:01:29;;;;;;;;;;;;;;;18.12;58.37;98297.50;5054569;27;103842;-65
2021/10/29 12:09:31;;;;;;;;;;;;;;;17.78;59.04;98285.16;5051542;27;102783;-64
2021/10/29 12:12:01;;;;;;;;;;;;;;;18.02;57.32;98275.47;5030307;27;103799;-64
2021/10/29 12:14:32;;;;;;;;;;;;;;;18.32;56.74;98272.09;5053400;27;104086;-64
2021/10/29 12:17:06;;;;;;;;;;;;;;;18.27;57.64;98269.09;5045156;27;103144;-64
2021/10/29 12:19:35;;;;;;;;;;;;;;;17.46;58.42;98258.34;5030406;27;102779;-64
2021/10/29 12:22:12;;;;;;;;;;;;;;;17.75;58.37;98253.41;5049863;27;103026;-65
2021/10/29 12:24:47;;;;;;;;;;;;;;;17.87;57.09;98254.78;5028370;27;103207;-65
2021/10/29 12:27:22;;;;;;;;;;;;;;;18.00;58.05;98258.75;5050835;27;102907;-64
2021/10/29 12:30:11;;;;;;;;;;;;;;;17.76;58.34;98256.94;5029812;27;102992;-64
2021/10/29 12:33:02;;;;;;;;;;;;;;;18.11;57.41;98255.72;5047059;27;104015;-64
2021/10/29 12:38:40;;;;;;;;;;;;;;;18.37;56.20;98248.34;5054847;27;103152;-65
2021/10/29 12:52:50;;;;;;;;;;;;;;;18.57;55.43;98222.94;5044931;27;102715;-64
2021/10/29 13:03:41;;;;;;;;;;;;;;;18.36;56.04;98217.25;5041898;27;102591;-64
2021/10/29 13:06:09;;;;;;;;;;;;;;;18.37;56.00;98217.09;5044142;27;102851;-65
2021/10/29 13:08:39;;;;;;;;;;;;;;;17.64;57.68;98212.84;5046655;27;103234;-65
2021/10/29 13:11:12;;;;;;;;;;;;;;;18.25;56.00;98213.13;5047867;27;103183;-64
2021/10/29 13:13:41;;;;;;;;;;;;;;;18.34;55.73;98205.91;5052094;27;102759;-65
2021/10/29 13:16:11;;;;;;;;;;;;;;;18.26;55.71;98208.59;5029131;27;104003;-64
2021/10/29 13:18:52;;;;;;;;;;;;;;;17.75;56.00;98204.50;5021572;27;103944;-64
2021/10/29 13:27:28;;;;;;;;;;;;;;;18.38;55.76;98186.69;5047076;27;103914;-64
2021/10/29 13:35:47;;;;;;;;;;;;;;;18.54;55.05;98185.81;5027878;27;102727;-64
2021/10/29 13:52:04;;;;;;;;;;;;;;;17.73;54.44;98183.31;5047354;27;103247;-64
2021/10/29 13:54:41;;;;;;;;;;;;;;;17.73;54.49;98180.63;5045021;27;103183;-64
2021/10/29 14:30:29;;;;;;;;;;;;;;;17.26;53.73;98176.91;5049258;27;102755;-63
2021/10/29 14:33:06;;;;;;;;;;;;;;;17.12;54.01;98174.91;5053777;27;102739;-64
2021/10/29 14:35:36;;;;;;;;;;;;;;;17.05;55.00;98173.88;5048546;27;104433;-64
2021/10/29 14:38:15;;;;;;;;;;;;;;;17.11;55.18;98175.88;5047568;27;103134;-64
2021/10/29 14:40:47;;;;;;;;;;;;;;;16.83;56.32;98174.47;5043054;27;102786;-64
2021/10/29 14:43:18;;;;;;;;;;;;;;;16.74;56.17;98177.13;5023853;27;102661;-64
2021/10/29 14:45:52;;;;;;;;;;;;;;;16.62;56.77;98181.06;5047637;27;103239;-63
2021/10/29 14:48:33;;;;;;;;;;;;;;;16.72;56.90;98178.28;5048696;27;102973;-64
2021/10/29 15:05:15;;;;;;;;;;;;;;;16.61;57.55;98160.75;5039943;27;103860;-63
2021/10/29 15:16:09;;;;;;;;;;;;;;;16.34;59.06;98168.94;5031782;27;104027;-63
2021/10/29 15:27:37;;;;;;;;;;;;;;;15.90;59.84;98180.66;4920141;28;102820;-63
2021/10/29 15:30:09;;;;;;;;;;;;;;;15.83;61.41;98190.28;4972940;28;103210;-63
2021/10/29 15:41:21;;;;;;;;;;;;;;;15.16;64.79;98189.00;4993578;27;103011;-63
2021/10/29 15:44:04;;;;;;;;;;;;;;;15.12;65.73;98192.97;5049809;27;103143;-63
2021/10/29 15:46:38;;;;;;;;;;;;;;;14.77;66.11;98192.91;5050428;27;103046;-63
2021/10/29 15:49:18;;;;;;;;;;;;;;;14.74;66.73;98195.88;5051941;27;102700;-63
2021/10/29 15:51:50;;;;;;;;;;;;;;;14.58;67.14;98195.69;5035729;27;103339;-63
2021/10/29 15:54:19;;;;;;;;;;;;;;;14.37;68.23;98190.63;5046698;27;103095;-63
2021/10/29 15:56:50;;;;;;;;;;;;;;;14.32;67.72;98201.69;5047668;27;103141;-63
2021/10/29 15:59:30;;;;;;;;;;;;;;;13.89;69.58;98199.53;5049808;27;103445;-64
2021/10/29 16:02:07;;;;;;;;;;;;;;;13.92;69.08;98195.78;5029050;27;103022;-63
2021/10/29 16:18:39;;;;;;;;;;;;;;;13.38;70.20;98196.41;5053512;27;102743;-63
2021/10/29 16:21:07;;;;;;;;;;;;;;;13.23;70.59;98185.38;5032460;27;102783;-64
2021/10/29 16:23:35;;;;;;;;;;;;;;;13.03;71.63;98191.63;5041579;27;103368;-63
2021/10/29 16:26:08;;;;;;;;;;;;;;;13.08;71.61;98185.94;5024659;27;103353;-63
2021/10/29 16:28:37;;;;;;;;;;;;;;;13.05;71.79;98187.00;5037944;27;103153;-63
2021/10/29 16:31:06;;;;;;;;;;;;;;;13.09;71.62;98183.13;5036817;27;103776;-63
2021/10/29 16:33:35;;;;;;;;;;;;;;;13.05;72.00;98187.00;5039298;27;103920;-63
2021/10/29 16:36:03;;;;;;;;;;;;;;;12.94;72.68;98181.81;5037664;27;103198;-63
2021/10/29 16:38:31;;;;;;;;;;;;;;;12.62;74.10;98187.38;5042062;27;102759;-63
2021/10/29 16:40:59;;;;;;;;;;;;;;;12.37;73.64;98189.66;5025245;27;102801;-64